sensor_id;sensor_type;location;lat;lon;timestamp;P1;durP1;ratioP1;P2;durP2;ratioP2
42332;SDS011;27984;51.476;5.702;2024-03-23T00:53:14;18.88;;;6.20;;
42332;SDS011;27984;51.476;5.702;2024-03-23T00:55:41;22.02;;;6.43;;
42332;SDS011;27984;51.476;5.702;2024-03-23T00:58:07;19.27;;;6.55;;
42332;SDS011;27984;51.476;5.702;2024-03-23T01:00:33;15.90;;;6.10;;
42332;SDS011;27984;51.476;5.702;2024-03-23T01:02:59;23.55;;;6.20;;
42332;SDS011;27984;51.476;5.702;2024-03-23T01:05:25;32.15;;;7.13;;
42332;SDS011;27984;51.476;5.702;2024-03-23T01:07:51;22.20;;;6.35;;
42332;SDS011;27984;51.476;5.702;2024-03-23T01:10:17;21.80;;;7.05;;
42332;SDS011;27984;51.476;5.702;2024-03-23T01:12:43;21.13;;;6.82;;
42332;SDS011;27984;51.476;5.702;2024-03-23T01:15:09;21.48;;;5.95;;
42332;SDS011;27984;51.476;5.702;2024-03-23T01:17:35;17.80;;;6.30;;
42332;SDS011;27984;51.476;5.702;2024-03-23T01:20:01;21.58;;;6.00;;
42332;SDS011;27984;51.476;5.702;2024-03-23T01:22:27;27.55;;;5.97;;
42332;SDS011;27984;51.476;5.702;2024-03-23T01:24:53;17.40;;;5.75;;
42332;SDS011;27984;51.476;5.702;2024-03-23T01:27:19;17.88;;;6.22;;
42332;SDS011;27984;51.476;5.702;2024-03-23T01:29:45;21.63;;;6.22;;
42332;SDS011;27984;51.476;5.702;2024-03-23T01:32:12;23.08;;;6.35;;
42332;SDS011;27984;51.476;5.702;2024-03-23T01:34:38;20.27;;;6.18;;
42332;SDS011;27984;51.476;5.702;2024-03-23T01:37:04;19.75;;;5.28;;
42332;SDS011;27984;51.476;5.702;2024-03-23T01:39:30;18.05;;;5.60;;
42332;SDS011;27984;51.476;5.702;2024-03-23T01:41:56;18.65;;;5.50;;
42332;SDS011;27984;51.476;5.702;2024-03-23T01:44:22;17.95;;;5.53;;
42332;SDS011;27984;51.476;5.702;2024-03-23T01:46:48;15.77;;;5.00;;
42332;SDS011;27984;51.476;5.702;2024-03-23T01:49:16;16.98;;;4.82;;
42332;SDS011;27984;51.476;5.702;2024-03-23T01:51:43;17.00;;;5.10;;
42332;SDS011;27984;51.476;5.702;2024-03-23T01:54:10;17.20;;;5.15;;
42332;SDS011;27984;51.476;5.702;2024-03-23T01:56:36;18.40;;;4.75;;
42332;SDS011;27984;51.476;5.702;2024-03-23T01:59:02;16.05;;;5.60;;
42332;SDS011;27984;51.476;5.702;2024-03-23T02:01:28;19.65;;;4.85;;
42332;SDS011;27984;51.476;5.702;2024-03-23T02:03:55;22.42;;;5.28;;
42332;SDS011;27984;51.476;5.702;2024-03-23T02:06:21;24.65;;;5.50;;
42332;SDS011;27984;51.476;5.702;2024-03-23T02:08:48;17.95;;;5.10;;
42332;SDS011;27984;51.476;5.702;2024-03-23T02:11:14;16.95;;;5.45;;
42332;SDS011;27984;51.476;5.702;2024-03-23T02:13:40;22.70;;;5.70;;
42332;SDS011;27984;51.476;5.702;2024-03-23T02:16:06;15.20;;;5.10;;
42332;SDS011;27984;51.476;5.702;2024-03-23T02:18:32;19.60;;;5.55;;
42332;SDS011;27984;51.476;5.702;2024-03-23T02:20:58;16.55;;;5.57;;
42332;SDS011;27984;51.476;5.702;2024-03-23T02:23:24;24.50;;;6.20;;
42332;SDS011;27984;51.476;5.702;2024-03-23T02:25:50;22.20;;;5.93;;
42332;SDS011;27984;51.476;5.702;2024-03-23T02:28:18;18.85;;;5.70;;
42332;SDS011;27984;51.476;5.702;2024-03-23T02:30:44;15.13;;;5.15;;
42332;SDS011;27984;51.476;5.702;2024-03-23T02:33:10;16.40;;;5.00;;
42332;SDS011;27984;51.476;5.702;2024-03-23T02:35:36;18.83;;;5.28;;
42332;SDS011;27984;51.476;5.702;2024-03-23T02:38:02;18.13;;;5.65;;
42332;SDS011;27984;51.476;5.702;2024-03-23T02:40:28;18.33;;;5.80;;
42332;SDS011;27984;51.476;5.702;2024-03-23T02:42:54;19.58;;;5.05;;
42332;SDS011;27984;51.476;5.702;2024-03-23T02:48:12;21.38;;;5.95;;
42332;SDS011;27984;51.476;5.702;2024-03-23T03:11:17;15.70;;;6.05;;
42332;SDS011;27984;51.476;5.702;2024-03-23T03:13:43;23.52;;;6.43;;
42332;SDS011;27984;51.476;5.702;2024-03-23T03:16:10;19.42;;;6.30;;
42332;SDS011;27984;51.476;5.702;2024-03-23T03:18:36;16.80;;;6.40;;
42332;SDS011;27984;51.476;5.702;2024-03-23T03:21:02;19.35;;;6.50;;
42332;SDS011;27984;51.476;5.702;2024-03-23T03:23:30;19.83;;;6.28;;
42332;SDS011;27984;51.476;5.702;2024-03-23T03:25:56;18.75;;;6.63;;
42332;SDS011;27984;51.476;5.702;2024-03-23T03:28:22;18.02;;;6.60;;
42332;SDS011;27984;51.476;5.702;2024-03-23T03:30:51;19.50;;;6.53;;
42332;SDS011;27984;51.476;5.702;2024-03-23T03:33:17;20.55;;;7.07;;
42332;SDS011;27984;51.476;5.702;2024-03-23T03:35:43;17.83;;;6.47;;
42332;SDS011;27984;51.476;5.702;2024-03-23T03:38:10;23.48;;;6.90;;
42332;SDS011;27984;51.476;5.702;2024-03-23T03:40:36;18.73;;;6.22;;
42332;SDS011;27984;51.476;5.702;2024-03-23T03:43:02;18.13;;;6.20;;
42332;SDS011;27984;51.476;5.702;2024-03-23T03:45:28;16.35;;;6.38;;
42332;SDS011;27984;51.476;5.702;2024-03-23T03:47:54;21.83;;;6.40;;
42332;SDS011;27984;51.476;5.702;2024-03-23T03:50:21;20.50;;;6.80;;
42332;SDS011;27984;51.476;5.702;2024-03-23T03:52:47;19.67;;;6.10;;
42332;SDS011;27984;51.476;5.702;2024-03-23T03:55:13;21.77;;;6.38;;
42332;SDS011;27984;51.476;5.702;2024-03-23T03:57:40;22.10;;;5.60;;
42332;SDS011;27984;51.476;5.702;2024-03-23T04:00:06;20.00;;;5.22;;
42332;SDS011;27984;51.476;5.702;2024-03-23T04:02:36;16.83;;;5.28;;
42332;SDS011;27984;51.476;5.702;2024-03-23T04:05:02;17.83;;;5.32;;
42332;SDS011;27984;51.476;5.702;2024-03-23T04:07:28;15.75;;;5.10;;
42332;SDS011;27984;51.476;5.702;2024-03-23T04:09:54;19.80;;;5.30;;
42332;SDS011;27984;51.476;5.702;2024-03-23T04:12:20;19.77;;;5.15;;
42332;SDS011;27984;51.476;5.702;2024-03-23T04:14:46;20.60;;;5.40;;
42332;SDS011;27984;51.476;5.702;2024-03-23T04:17:12;18.58;;;4.75;;
42332;SDS011;27984;51.476;5.702;2024-03-23T04:19:38;20.85;;;5.45;;
42332;SDS011;27984;51.476;5.702;2024-03-23T04:22:04;17.20;;;4.88;;
42332;SDS011;27984;51.476;5.702;2024-03-23T04:24:30;19.52;;;5.15;;
42332;SDS011;27984;51.476;5.702;2024-03-23T04:26:56;18.88;;;4.80;;
42332;SDS011;27984;51.476;5.702;2024-03-23T04:29:22;13.70;;;4.57;;
42332;SDS011;27984;51.476;5.702;2024-03-23T04:31:48;15.30;;;4.70;;
42332;SDS011;27984;51.476;5.702;2024-03-23T04:34:14;15.90;;;4.93;;
42332;SDS011;27984;51.476;5.702;2024-03-23T04:36:40;12.50;;;5.32;;
42332;SDS011;27984;51.476;5.702;2024-03-23T04:39:06;22.67;;;5.10;;
42332;SDS011;27984;51.476;5.702;2024-03-23T04:41:33;15.50;;;5.07;;
42332;SDS011;27984;51.476;5.702;2024-03-23T04:43:59;15.65;;;4.85;;
42332;SDS011;27984;51.476;5.702;2024-03-23T04:46:26;18.15;;;5.47;;
42332;SDS011;27984;51.476;5.702;2024-03-23T04:48:52;14.27;;;5.70;;
42332;SDS011;27984;51.476;5.702;2024-03-23T04:51:22;23.27;;;5.82;;
42332;SDS011;27984;51.476;5.702;2024-03-23T04:53:49;15.77;;;5.65;;
42332;SDS011;27984;51.476;5.702;2024-03-23T04:56:15;20.00;;;5.85;;
42332;SDS011;27984;51.476;5.702;2024-03-23T04:58:42;15.60;;;5.63;;
42332;SDS011;27984;51.476;5.702;2024-03-23T05:01:08;22.13;;;6.40;;
42332;SDS011;27984;51.476;5.702;2024-03-23T05:03:34;17.05;;;6.38;;
42332;SDS011;27984;51.476;5.702;2024-03-23T05:06:04;26.67;;;7.63;;
42332;SDS011;27984;51.476;5.702;2024-03-23T05:08:30;19.02;;;7.53;;
42332;SDS011;27984;51.476;5.702;2024-03-23T05:10:56;22.00;;;7.95;;
42332;SDS011;27984;51.476;5.702;2024-03-23T05:13:22;23.63;;;8.05;;
42332;SDS011;27984;51.476;5.702;2024-03-23T05:15:52;25.15;;;8.75;;
42332;SDS011;27984;51.476;5.702;2024-03-23T05:18:18;23.02;;;9.18;;
42332;SDS011;27984;51.476;5.702;2024-03-23T05:20:44;23.58;;;10.20;;
42332;SDS011;27984;51.476;5.702;2024-03-23T05:23:10;36.88;;;11.63;;
42332;SDS011;27984;51.476;5.702;2024-03-23T05:25:38;29.65;;;11.55;;
42332;SDS011;27984;51.476;5.702;2024-03-23T05:28:04;24.85;;;11.18;;
42332;SDS011;27984;51.476;5.702;2024-03-23T05:30:31;28.30;;;11.75;;
42332;SDS011;27984;51.476;5.702;2024-03-23T05:32:57;25.45;;;11.82;;
42332;SDS011;27984;51.476;5.702;2024-03-23T05:35:23;32.70;;;12.45;;
42332;SDS011;27984;51.476;5.702;2024-03-23T05:37:49;30.48;;;12.63;;
42332;SDS011;27984;51.476;5.702;2024-03-23T05:40:15;33.97;;;13.32;;
42332;SDS011;27984;51.476;5.702;2024-03-23T05:42:41;32.92;;;12.70;;
42332;SDS011;27984;51.476;5.702;2024-03-23T05:45:08;29.63;;;13.90;;
42332;SDS011;27984;51.476;5.702;2024-03-23T05:47:34;35.03;;;13.43;;
42332;SDS011;27984;51.476;5.702;2024-03-23T05:50:00;34.67;;;12.88;;
42332;SDS011;27984;51.476;5.702;2024-03-23T05:52:27;33.15;;;13.38;;
42332;SDS011;27984;51.476;5.702;2024-03-23T05:54:53;31.05;;;14.00;;
42332;SDS011;27984;51.476;5.702;2024-03-23T05:57:19;35.85;;;14.07;;
42332;SDS011;27984;51.476;5.702;2024-03-23T05:59:45;40.90;;;13.88;;
42332;SDS011;27984;51.476;5.702;2024-03-23T06:02:11;35.78;;;14.18;;
42332;SDS011;27984;51.476;5.702;2024-03-23T06:04:37;36.45;;;13.60;;
42332;SDS011;27984;51.476;5.702;2024-03-23T06:07:06;35.05;;;13.13;;
42332;SDS011;27984;51.476;5.702;2024-03-23T06:09:38;29.42;;;12.57;;
42332;SDS011;27984;51.476;5.702;2024-03-23T06:12:04;33.88;;;12.52;;
42332;SDS011;27984;51.476;5.702;2024-03-23T06:14:30;38.10;;;12.07;;
42332;SDS011;27984;51.476;5.702;2024-03-23T06:16:58;37.83;;;13.02;;
42332;SDS011;27984;51.476;5.702;2024-03-23T06:19:24;33.50;;;11.50;;
42332;SDS011;27984;51.476;5.702;2024-03-23T06:21:52;31.40;;;11.18;;
42332;SDS011;27984;51.476;5.702;2024-03-23T06:24:21;25.40;;;10.80;;
42332;SDS011;27984;51.476;5.702;2024-03-23T06:26:47;29.77;;;10.95;;
42332;SDS011;27984;51.476;5.702;2024-03-23T06:29:13;28.65;;;10.90;;
42332;SDS011;27984;51.476;5.702;2024-03-23T06:31:42;25.15;;;10.70;;
42332;SDS011;27984;51.476;5.702;2024-03-23T06:34:08;28.85;;;9.48;;
42332;SDS011;27984;51.476;5.702;2024-03-23T06:36:34;30.88;;;8.98;;
42332;SDS011;27984;51.476;5.702;2024-03-23T06:39:01;25.65;;;8.82;;
42332;SDS011;27984;51.476;5.702;2024-03-23T06:41:27;25.08;;;8.00;;
42332;SDS011;27984;51.476;5.702;2024-03-23T06:43:53;24.50;;;9.00;;
42332;SDS011;27984;51.476;5.702;2024-03-23T06:46:19;24.95;;;7.75;;
42332;SDS011;27984;51.476;5.702;2024-03-23T06:48:45;20.60;;;7.32;;
42332;SDS011;27984;51.476;5.702;2024-03-23T06:51:11;26.40;;;7.05;;
42332;SDS011;27984;51.476;5.702;2024-03-23T06:53:37;17.38;;;5.50;;
42332;SDS011;27984;51.476;5.702;2024-03-23T06:56:03;18.00;;;4.85;;
42332;SDS011;27984;51.476;5.702;2024-03-23T06:58:30;18.67;;;4.68;;
42332;SDS011;27984;51.476;5.702;2024-03-23T07:00:56;17.15;;;4.93;;
42332;SDS011;27984;51.476;5.702;2024-03-23T07:03:22;19.25;;;5.85;;
42332;SDS011;27984;51.476;5.702;2024-03-23T07:05:48;20.02;;;6.20;;
42332;SDS011;27984;51.476;5.702;2024-03-23T07:08:14;15.80;;;5.95;;
42332;SDS011;27984;51.476;5.702;2024-03-23T07:10:46;20.83;;;6.60;;
42332;SDS011;27984;51.476;5.702;2024-03-23T07:13:12;21.77;;;6.63;;
42332;SDS011;27984;51.476;5.702;2024-03-23T07:15:38;23.52;;;6.22;;
42332;SDS011;27984;51.476;5.702;2024-03-23T07:18:04;16.73;;;5.55;;
42332;SDS011;27984;51.476;5.702;2024-03-23T07:20:30;24.92;;;5.88;;
42332;SDS011;27984;51.476;5.702;2024-03-23T07:22:56;13.65;;;4.70;;
42332;SDS011;27984;51.476;5.702;2024-03-23T07:25:22;17.15;;;4.82;;
42332;SDS011;27984;51.476;5.702;2024-03-23T07:27:50;19.73;;;5.47;;
42332;SDS011;27984;51.476;5.702;2024-03-23T07:30:16;21.55;;;5.60;;
42332;SDS011;27984;51.476;5.702;2024-03-23T07:32:44;23.02;;;5.82;;
42332;SDS011;27984;51.476;5.702;2024-03-23T07:35:10;15.43;;;5.47;;
42332;SDS011;27984;51.476;5.702;2024-03-23T07:37:35;17.30;;;5.30;;
42332;SDS011;27984;51.476;5.702;2024-03-23T07:40:02;17.55;;;5.15;;
42332;SDS011;27984;51.476;5.702;2024-03-23T07:42:28;13.82;;;4.90;;
42332;SDS011;27984;51.476;5.702;2024-03-23T07:44:54;19.30;;;5.07;;
42332;SDS011;27984;51.476;5.702;2024-03-23T07:47:22;15.00;;;4.40;;
42332;SDS011;27984;51.476;5.702;2024-03-23T07:49:48;10.23;;;3.47;;
42332;SDS011;27984;51.476;5.702;2024-03-23T07:52:14;18.80;;;4.78;;
42332;SDS011;27984;51.476;5.702;2024-03-23T07:54:40;15.95;;;4.88;;
42332;SDS011;27984;51.476;5.702;2024-03-23T07:57:06;17.20;;;4.85;;
42332;SDS011;27984;51.476;5.702;2024-03-23T07:59:32;18.23;;;4.88;;
42332;SDS011;27984;51.476;5.702;2024-03-23T08:01:59;16.00;;;4.25;;
42332;SDS011;27984;51.476;5.702;2024-03-23T08:04:25;16.98;;;4.60;;
42332;SDS011;27984;51.476;5.702;2024-03-23T08:06:51;12.18;;;4.05;;
42332;SDS011;27984;51.476;5.702;2024-03-23T08:09:17;17.42;;;4.65;;
42332;SDS011;27984;51.476;5.702;2024-03-23T08:11:43;17.30;;;4.53;;
42332;SDS011;27984;51.476;5.702;2024-03-23T08:14:11;13.95;;;3.95;;
42332;SDS011;27984;51.476;5.702;2024-03-23T08:16:37;15.60;;;4.22;;
42332;SDS011;27984;51.476;5.702;2024-03-23T08:19:03;16.30;;;3.97;;
42332;SDS011;27984;51.476;5.702;2024-03-23T08:21:30;12.60;;;3.35;;
42332;SDS011;27984;51.476;5.702;2024-03-23T08:23:56;9.02;;;2.95;;
42332;SDS011;27984;51.476;5.702;2024-03-23T08:26:22;13.15;;;3.40;;
42332;SDS011;27984;51.476;5.702;2024-03-23T08:28:48;12.60;;;2.72;;
42332;SDS011;27984;51.476;5.702;2024-03-23T08:31:14;12.98;;;3.03;;
42332;SDS011;27984;51.476;5.702;2024-03-23T08:33:40;12.13;;;2.80;;
42332;SDS011;27984;51.476;5.702;2024-03-23T08:36:08;12.15;;;2.90;;
42332;SDS011;27984;51.476;5.702;2024-03-23T08:38:35;14.73;;;3.10;;
42332;SDS011;27984;51.476;5.702;2024-03-23T08:41:05;10.43;;;2.65;;
42332;SDS011;27984;51.476;5.702;2024-03-23T08:43:32;16.02;;;2.83;;
42332;SDS011;27984;51.476;5.702;2024-03-23T08:46:05;11.50;;;2.92;;
42332;SDS011;27984;51.476;5.702;2024-03-23T08:48:31;8.43;;;2.40;;
42332;SDS011;27984;51.476;5.702;2024-03-23T08:51:04;12.18;;;2.70;;
42332;SDS011;27984;51.476;5.702;2024-03-23T08:53:31;9.32;;;2.40;;
42332;SDS011;27984;51.476;5.702;2024-03-23T08:55:57;11.27;;;2.22;;
42332;SDS011;27984;51.476;5.702;2024-03-23T08:58:23;10.60;;;2.28;;
42332;SDS011;27984;51.476;5.702;2024-03-23T09:00:50;10.88;;;2.30;;
42332;SDS011;27984;51.476;5.702;2024-03-23T09:03:21;13.80;;;2.47;;
42332;SDS011;27984;51.476;5.702;2024-03-23T09:05:47;12.02;;;2.65;;
42332;SDS011;27984;51.476;5.702;2024-03-23T09:08:13;13.00;;;2.47;;
42332;SDS011;27984;51.476;5.702;2024-03-23T09:10:39;12.90;;;3.13;;
42332;SDS011;27984;51.476;5.702;2024-03-23T09:13:05;11.20;;;2.58;;
42332;SDS011;27984;51.476;5.702;2024-03-23T09:15:35;16.88;;;2.78;;
42332;SDS011;27984;51.476;5.702;2024-03-23T09:18:01;9.18;;;2.38;;
42332;SDS011;27984;51.476;5.702;2024-03-23T09:20:28;15.73;;;2.47;;
42332;SDS011;27984;51.476;5.702;2024-03-23T09:22:54;6.57;;;1.38;;
42332;SDS011;27984;51.476;5.702;2024-03-23T09:25:20;3.33;;;1.20;;
42332;SDS011;27984;51.476;5.702;2024-03-23T09:27:49;2.40;;;1.33;;
42332;SDS011;27984;51.476;5.702;2024-03-23T09:30:15;4.07;;;1.10;;
42332;SDS011;27984;51.476;5.702;2024-03-23T09:32:43;3.75;;;1.27;;
42332;SDS011;27984;51.476;5.702;2024-03-23T09:35:09;6.53;;;1.58;;
42332;SDS011;27984;51.476;5.702;2024-03-23T09:37:35;5.68;;;1.50;;
42332;SDS011;27984;51.476;5.702;2024-03-23T09:40:01;9.57;;;1.48;;
42332;SDS011;27984;51.476;5.702;2024-03-23T09:42:28;5.18;;;1.20;;
42332;SDS011;27984;51.476;5.702;2024-03-23T09:44:54;6.25;;;1.52;;
42332;SDS011;27984;51.476;5.702;2024-03-23T09:47:23;4.50;;;1.25;;
42332;SDS011;27984;51.476;5.702;2024-03-23T09:49:50;6.40;;;1.60;;
42332;SDS011;27984;51.476;5.702;2024-03-23T09:52:16;6.43;;;1.50;;
42332;SDS011;27984;51.476;5.702;2024-03-23T09:54:42;6.50;;;1.30;;
42332;SDS011;27984;51.476;5.702;2024-03-23T09:57:08;8.70;;;1.40;;
42332;SDS011;27984;51.476;5.702;2024-03-23T09:59:34;10.30;;;1.80;;
42332;SDS011;27984;51.476;5.702;2024-03-23T10:02:01;5.95;;;1.38;;
42332;SDS011;27984;51.476;5.702;2024-03-23T10:04:39;10.45;;;2.00;;
42332;SDS011;27984;51.476;5.702;2024-03-23T10:07:15;6.30;;;1.73;;
42332;SDS011;27984;51.476;5.702;2024-03-23T10:09:43;6.70;;;1.70;;
42332;SDS011;27984;51.476;5.702;2024-03-23T10:12:13;7.00;;;1.60;;
42332;SDS011;27984;51.476;5.702;2024-03-23T10:14:39;9.80;;;2.10;;
42332;SDS011;27984;51.476;5.702;2024-03-23T10:17:21;8.00;;;2.15;;
42332;SDS011;27984;51.476;5.702;2024-03-23T10:19:49;10.52;;;2.03;;
42332;SDS011;27984;51.476;5.702;2024-03-23T10:22:24;9.52;;;1.73;;
42332;SDS011;27984;51.476;5.702;2024-03-23T10:24:50;11.02;;;2.13;;
42332;SDS011;27984;51.476;5.702;2024-03-23T10:27:17;5.53;;;1.88;;
42332;SDS011;27984;51.476;5.702;2024-03-23T10:29:47;6.30;;;1.13;;
42332;SDS011;27984;51.476;5.702;2024-03-23T10:32:13;5.85;;;1.30;;
42332;SDS011;27984;51.476;5.702;2024-03-23T10:34:40;5.25;;;1.00;;
42332;SDS011;27984;51.476;5.702;2024-03-23T10:37:06;4.07;;;1.10;;
42332;SDS011;27984;51.476;5.702;2024-03-23T10:39:33;5.57;;;1.23;;
42332;SDS011;27984;51.476;5.702;2024-03-23T10:42:02;8.30;;;1.45;;
42332;SDS011;27984;51.476;5.702;2024-03-23T10:44:28;4.60;;;1.08;;
42332;SDS011;27984;51.476;5.702;2024-03-23T10:46:56;4.85;;;1.23;;
42332;SDS011;27984;51.476;5.702;2024-03-23T10:49:24;5.57;;;1.50;;
42332;SDS011;27984;51.476;5.702;2024-03-23T10:51:50;9.30;;;1.70;;
42332;SDS011;27984;51.476;5.702;2024-03-23T10:54:16;7.30;;;1.88;;
42332;SDS011;27984;51.476;5.702;2024-03-23T10:56:44;6.68;;;1.63;;
42332;SDS011;27984;51.476;5.702;2024-03-23T10:59:10;10.63;;;2.00;;
42332;SDS011;27984;51.476;5.702;2024-03-23T11:01:53;6.03;;;1.67;;
42332;SDS011;27984;51.476;5.702;2024-03-23T11:04:29;6.72;;;1.40;;
42332;SDS011;27984;51.476;5.702;2024-03-23T11:06:56;7.72;;;1.65;;
42332;SDS011;27984;51.476;5.702;2024-03-23T11:15:05;9.27;;;1.70;;
42332;SDS011;27984;51.476;5.702;2024-03-23T11:17:31;8.23;;;2.05;;
42332;SDS011;27984;51.476;5.702;2024-03-23T11:20:01;5.30;;;1.50;;
42332;SDS011;27984;51.476;5.702;2024-03-23T11:23:01;7.93;;;2.00;;
42332;SDS011;27984;51.476;5.702;2024-03-23T11:25:21;10.40;;;1.90;;
42332;SDS011;27984;51.476;5.702;2024-03-23T11:27:48;7.88;;;1.65;;
42332;SDS011;27984;51.476;5.702;2024-03-23T11:30:15;8.23;;;1.80;;
42332;SDS011;27984;51.476;5.702;2024-03-23T11:32:44;9.77;;;1.98;;
42332;SDS011;27984;51.476;5.702;2024-03-23T11:35:11;8.43;;;2.20;;
42332;SDS011;27984;51.476;5.702;2024-03-23T11:38:11;8.73;;;1.58;;
42332;SDS011;27984;51.476;5.702;2024-03-23T11:40:37;6.57;;;1.80;;
42332;SDS011;27984;51.476;5.702;2024-03-23T11:43:13;13.75;;;2.08;;
42332;SDS011;27984;51.476;5.702;2024-03-23T11:45:48;5.90;;;1.60;;
42332;SDS011;27984;51.476;5.702;2024-03-23T11:48:18;4.57;;;1.55;;
42332;SDS011;27984;51.476;5.702;2024-03-23T11:50:45;4.95;;;1.25;;
42332;SDS011;27984;51.476;5.702;2024-03-23T11:58:22;5.57;;;1.00;;
42332;SDS011;27984;51.476;5.702;2024-03-23T12:00:49;4.18;;;1.00;;
42332;SDS011;27984;51.476;5.702;2024-03-23T12:03:16;2.15;;;0.90;;
42332;SDS011;27984;51.476;5.702;2024-03-23T12:05:47;4.85;;;1.23;;
42332;SDS011;27984;51.476;5.702;2024-03-23T12:08:17;5.93;;;1.50;;
42332;SDS011;27984;51.476;5.702;2024-03-23T12:10:52;3.80;;;0.93;;
42332;SDS011;27984;51.476;5.702;2024-03-23T12:15:45;3.20;;;0.75;;
42332;SDS011;27984;51.476;5.702;2024-03-23T12:18:11;3.95;;;1.00;;
42332;SDS011;27984;51.476;5.702;2024-03-23T12:20:37;4.57;;;1.33;;
42332;SDS011;27984;51.476;5.702;2024-03-23T12:23:10;5.63;;;1.02;;
42332;SDS011;27984;51.476;5.702;2024-03-23T12:25:37;4.43;;;1.20;;
42332;SDS011;27984;51.476;5.702;2024-03-23T12:28:04;4.45;;;1.17;;
42332;SDS011;27984;51.476;5.702;2024-03-23T12:30:33;2.42;;;0.88;;
42332;SDS011;27984;51.476;5.702;2024-03-23T12:33:00;2.80;;;0.93;;
42332;SDS011;27984;51.476;5.702;2024-03-23T12:35:26;4.15;;;0.90;;
42332;SDS011;27984;51.476;5.702;2024-03-23T12:37:52;3.97;;;0.90;;
42332;SDS011;27984;51.476;5.702;2024-03-23T12:40:17;4.72;;;1.20;;
42332;SDS011;27984;51.476;5.702;2024-03-23T12:42:43;6.88;;;1.20;;
42332;SDS011;27984;51.476;5.702;2024-03-23T12:45:10;6.97;;;1.25;;
42332;SDS011;27984;51.476;5.702;2024-03-23T12:47:36;4.95;;;1.00;;
42332;SDS011;27984;51.476;5.702;2024-03-23T12:50:02;3.67;;;1.20;;
42332;SDS011;27984;51.476;5.702;2024-03-23T12:52:28;4.40;;;1.15;;
42332;SDS011;27984;51.476;5.702;2024-03-23T12:54:55;3.55;;;1.08;;
42332;SDS011;27984;51.476;5.702;2024-03-23T12:57:22;4.53;;;1.25;;
42332;SDS011;27984;51.476;5.702;2024-03-23T12:59:48;5.70;;;1.05;;
42332;SDS011;27984;51.476;5.702;2024-03-23T13:02:16;4.65;;;1.20;;
42332;SDS011;27984;51.476;5.702;2024-03-23T13:04:42;3.88;;;1.15;;
42332;SDS011;27984;51.476;5.702;2024-03-23T13:07:11;5.15;;;1.10;;
42332;SDS011;27984;51.476;5.702;2024-03-23T13:09:37;6.75;;;1.25;;
42332;SDS011;27984;51.476;5.702;2024-03-23T13:12:03;5.32;;;1.02;;
42332;SDS011;27984;51.476;5.702;2024-03-23T13:14:29;4.80;;;1.00;;
42332;SDS011;27984;51.476;5.702;2024-03-23T13:16:55;3.40;;;1.10;;
42332;SDS011;27984;51.476;5.702;2024-03-23T13:19:21;4.32;;;1.00;;
42332;SDS011;27984;51.476;5.702;2024-03-23T13:21:51;3.25;;;0.82;;
42332;SDS011;27984;51.476;5.702;2024-03-23T13:24:17;3.45;;;0.80;;
42332;SDS011;27984;51.476;5.702;2024-03-23T13:26:43;2.92;;;0.80;;
42332;SDS011;27984;51.476;5.702;2024-03-23T13:29:11;3.10;;;1.20;;
42332;SDS011;27984;51.476;5.702;2024-03-23T13:31:38;4.95;;;1.00;;
42332;SDS011;27984;51.476;5.702;2024-03-23T13:34:04;2.75;;;0.93;;
42332;SDS011;27984;51.476;5.702;2024-03-23T13:36:30;3.80;;;1.23;;
42332;SDS011;27984;51.476;5.702;2024-03-23T13:38:56;5.85;;;1.10;;
42332;SDS011;27984;51.476;5.702;2024-03-23T13:41:22;4.35;;;1.42;;
42332;SDS011;27984;51.476;5.702;2024-03-23T13:43:48;5.43;;;1.10;;
42332;SDS011;27984;51.476;5.702;2024-03-23T13:46:14;6.25;;;1.60;;
42332;SDS011;27984;51.476;5.702;2024-03-23T13:48:40;3.83;;;1.10;;
42332;SDS011;27984;51.476;5.702;2024-03-23T13:51:07;5.45;;;1.10;;
42332;SDS011;27984;51.476;5.702;2024-03-23T13:53:33;8.85;;;1.38;;
42332;SDS011;27984;51.476;5.702;2024-03-23T13:55:59;5.60;;;1.10;;
42332;SDS011;27984;51.476;5.702;2024-03-23T13:58:25;6.32;;;1.17;;
42332;SDS011;27984;51.476;5.702;2024-03-23T14:00:52;5.28;;;0.98;;
42332;SDS011;27984;51.476;5.702;2024-03-23T14:03:19;4.03;;;1.05;;
42332;SDS011;27984;51.476;5.702;2024-03-23T14:05:45;6.20;;;1.08;;
42332;SDS011;27984;51.476;5.702;2024-03-23T14:08:12;6.53;;;1.00;;
42332;SDS011;27984;51.476;5.702;2024-03-23T14:10:41;4.53;;;0.90;;
42332;SDS011;27984;51.476;5.702;2024-03-23T14:13:07;5.30;;;1.15;;
42332;SDS011;27984;51.476;5.702;2024-03-23T14:15:33;5.22;;;1.20;;
42332;SDS011;27984;51.476;5.702;2024-03-23T14:18:01;6.07;;;1.45;;
42332;SDS011;27984;51.476;5.702;2024-03-23T14:20:27;7.63;;;1.67;;
42332;SDS011;27984;51.476;5.702;2024-03-23T14:22:53;5.10;;;1.10;;
42332;SDS011;27984;51.476;5.702;2024-03-23T14:25:19;6.35;;;1.30;;
42332;SDS011;27984;51.476;5.702;2024-03-23T14:27:48;6.32;;;1.30;;
42332;SDS011;27984;51.476;5.702;2024-03-23T14:30:14;6.68;;;1.40;;
42332;SDS011;27984;51.476;5.702;2024-03-23T14:32:41;5.47;;;1.63;;
42332;SDS011;27984;51.476;5.702;2024-03-23T14:35:07;5.75;;;1.60;;
42332;SDS011;27984;51.476;5.702;2024-03-23T14:37:38;10.93;;;2.03;;
42332;SDS011;27984;51.476;5.702;2024-03-23T14:40:07;6.25;;;1.83;;
42332;SDS011;27984;51.476;5.702;2024-03-23T14:42:33;5.85;;;1.60;;
42332;SDS011;27984;51.476;5.702;2024-03-23T14:44:59;7.95;;;1.63;;
42332;SDS011;27984;51.476;5.702;2024-03-23T14:47:28;9.13;;;1.77;;
42332;SDS011;27984;51.476;5.702;2024-03-23T14:49:54;4.80;;;1.42;;
42332;SDS011;27984;51.476;5.702;2024-03-23T14:52:20;7.88;;;1.75;;
42332;SDS011;27984;51.476;5.702;2024-03-23T14:54:46;7.35;;;1.50;;
42332;SDS011;27984;51.476;5.702;2024-03-23T14:57:12;10.07;;;1.77;;
42332;SDS011;27984;51.476;5.702;2024-03-23T14:59:38;6.10;;;1.60;;
42332;SDS011;27984;51.476;5.702;2024-03-23T15:02:05;4.95;;;1.35;;
42332;SDS011;27984;51.476;5.702;2024-03-23T15:04:31;7.28;;;1.58;;
42332;SDS011;27984;51.476;5.702;2024-03-23T15:06:57;7.07;;;1.65;;
42332;SDS011;27984;51.476;5.702;2024-03-23T15:09:23;3.70;;;1.38;;
42332;SDS011;27984;51.476;5.702;2024-03-23T15:11:49;4.60;;;1.30;;
42332;SDS011;27984;51.476;5.702;2024-03-23T15:14:15;8.82;;;1.92;;
42332;SDS011;27984;51.476;5.702;2024-03-23T15:16:41;6.03;;;1.65;;
42332;SDS011;27984;51.476;5.702;2024-03-23T15:19:07;3.38;;;1.10;;
42332;SDS011;27984;51.476;5.702;2024-03-23T15:21:33;7.85;;;1.92;;
42332;SDS011;27984;51.476;5.702;2024-03-23T15:24:01;6.28;;;1.55;;
42332;SDS011;27984;51.476;5.702;2024-03-23T15:26:27;5.63;;;1.60;;
42332;SDS011;27984;51.476;5.702;2024-03-23T15:28:53;6.28;;;1.40;;
42332;SDS011;27984;51.476;5.702;2024-03-23T15:31:21;5.68;;;1.40;;
42332;SDS011;27984;51.476;5.702;2024-03-23T15:33:47;4.35;;;0.93;;
42332;SDS011;27984;51.476;5.702;2024-03-23T15:36:13;6.20;;;1.30;;
42332;SDS011;27984;51.476;5.702;2024-03-23T15:38:42;8.98;;;1.60;;
42332;SDS011;27984;51.476;5.702;2024-03-23T15:41:08;7.32;;;1.85;;
42332;SDS011;27984;51.476;5.702;2024-03-23T15:43:34;5.35;;;1.20;;
42332;SDS011;27984;51.476;5.702;2024-03-23T15:46:00;5.07;;;1.23;;
42332;SDS011;27984;51.476;5.702;2024-03-23T15:48:27;3.50;;;1.00;;
42332;SDS011;27984;51.476;5.702;2024-03-23T15:50:53;5.18;;;1.67;;
42332;SDS011;27984;51.476;5.702;2024-03-23T15:53:20;5.68;;;1.00;;
42332;SDS011;27984;51.476;5.702;2024-03-23T15:55:56;5.30;;;1.40;;
42332;SDS011;27984;51.476;5.702;2024-03-23T16:00:57;4.35;;;1.20;;
42332;SDS011;27984;51.476;5.702;2024-03-23T16:03:23;5.68;;;1.23;;
42332;SDS011;27984;51.476;5.702;2024-03-23T16:05:50;4.32;;;1.00;;
42332;SDS011;27984;51.476;5.702;2024-03-23T16:08:16;2.00;;;0.80;;